Time;durP1;ratioP1;P1;durP2;ratioP2;P2;SDS_P1;SDS_P2;PMS_P1;PMS_P2;Temp;Humidity;BMP_temperature;BMP_pressure;BME280_temperature;BME280_humidity;BME280_pressure;Samples;Min_cycle;Max_cycle;Signal;HPM_P1;HPM_P2
2023/07/02 11:15:21;;;;;;;6.15;3.97;;;21.20;90.20;;;;;;5042114;28;20052;-86
2023/07/02 11:17:47;;;;;;;7.32;4.20;;;21.30;89.60;;;;;;5032374;28;20080;-90
2023/07/02 11:20:15;;;;;;;5.60;4.43;;;21.40;91.10;;;;;;5066854;28;20025;-89
2023/07/02 11:22:41;;;;;;;8.35;4.20;;;21.40;90.50;;;;;;5052800;28;20163;-88
2023/07/02 11:25:11;;;;;;;6.95;4.40;;;21.40;90.40;;;;;;5052700;28;20463;-89
2023/07/02 11:27:36;;;;;;;7.50;4.20;;;21.40;91.10;;;;;;5035055;28;20720;-87
2023/07/02 11:30:02;;;;;;;6.97;4.18;;;21.40;90.40;;;;;;5048689;28;20072;-86
2023/07/02 11:32:28;;;;;;;8.85;5.28;;;21.50;90.70;;;;;;5033468;28;20029;-87
2023/07/02 11:34:56;;;;;;;7.43;4.70;;;21.40;90.30;;;;;;5049282;28;20047;-88
2023/07/02 11:37:22;;;;;;;7.85;5.53;;;21.40;90.20;;;;;;5032541;28;20028;-88
2023/07/02 11:39:48;;;;;;;8.00;4.45;;;21.20;91.20;;;;;;5068649;28;20483;-89
2023/07/02 11:42:14;;;;;;;6.15;4.53;;;21.10;90.70;;;;;;5015653;28;20044;-89
2023/07/02 11:44:40;;;;;;;13.23;4.80;;;21.10;90.70;;;;;;5032858;28;20132;-89
2023/07/02 11:47:06;;;;;;;10.95;5.25;;;21.20;90.60;;;;;;5032832;28;20692;-88
2023/07/02 11:49:32;;;;;;;8.80;5.25;;;21.30;90.60;;;;;;5034522;28;20033;-89
2023/07/02 11:51:58;;;;;;;7.60;4.88;;;21.50;90.50;;;;;;5049854;28;20495;-89
2023/07/02 11:54:24;;;;;;;7.93;5.13;;;21.50;86.40;;;;;;5028460;28;20029;-91
2023/07/02 11:56:50;;;;;;;8.98;5.25;;;21.50;87.70;;;;;;5048413;28;20025;-89
2023/07/02 11:59:15;;;;;;;8.23;5.25;;;21.30;87.70;;;;;;5034937;28;20840;-88
2023/07/02 12:01:41;;;;;;;12.55;6.20;;;21.20;86.70;;;;;;5049563;28;20052;-88
2023/07/02 12:04:11;;;;;;;9.40;5.90;;;21.10;88.80;;;;;;5030959;28;20513;-90
2023/07/02 12:06:37;;;;;;;11.63;5.97;;;20.90;90.20;;;;;;5048687;28;20100;-87
2023/07/02 12:09:03;;;;;;;8.05;5.22;;;20.80;90.30;;;;;;5015240;28;20507;-87
2023/07/02 12:11:29;;;;;;;8.57;5.78;;;20.90;90.70;;;;;;5032952;28;20029;-87
2023/07/02 12:13:54;;;;;;;8.57;5.10;;;21.00;89.70;;;;;;5020706;28;20116;-88
2023/07/02 12:16:20;;;;;;;8.32;4.80;;;21.10;89.10;;;;;;5030434;28;20041;-88
2023/07/02 12:18:46;;;;;;;7.65;5.20;;;21.20;90.00;;;;;;5002905;28;20094;-89
2023/07/02 12:21:12;;;;;;;6.88;4.75;;;21.60;88.30;;;;;;5034777;28;20025;-88
2023/07/02 12:23:38;;;;;;;8.55;5.38;;;21.90;90.20;;;;;;5063495;28;20544;-89
2023/07/02 12:26:04;;;;;;;7.55;4.72;;;22.10;85.70;;;;;;5029498;28;20029;-89
2023/07/02 12:28:29;;;;;;;8.00;5.05;;;22.20;89.30;;;;;;5032785;28;20025;-87
2023/07/02 12:30:55;;;;;;;9.55;5.00;;;22.20;87.70;;;;;;5036275;28;20028;-87
2023/07/02 12:33:21;;;;;;;5.97;4.70;;;22.20;87.40;;;;;;5049253;28;20036;-87
2023/07/02 12:35:47;;;;;;;7.10;4.78;;;22.20;86.30;;;;;;5035295;28;20498;-89
2023/07/02 12:38:13;;;;;;;8.32;4.60;;;22.00;82.30;;;;;;5042792;28;20078;-88
2023/07/02 12:40:40;;;;;;;5.25;3.95;;;22.00;88.10;;;;;;5030420;28;20033;-88
2023/07/02 12:43:05;;;;;;;5.93;4.15;;;22.00;85.60;;;;;;5015302;28;20132;-88
2023/07/02 12:45:31;;;;;;;6.65;4.07;;;22.10;90.50;;;;;;5032627;28;20047;-88
2023/07/02 12:47:57;;;;;;;6.50;4.00;;;22.10;86.70;;;;;;5035486;28;20051;-88
2023/07/02 12:50:23;;;;;;;7.05;4.55;;;22.10;86.20;;;;;;5032828;28;20408;-88
2023/07/02 12:52:48;;;;;;;5.57;4.13;;;22.10;80.80;;;;;;5030840;28;20029;-88
2023/07/02 12:55:14;;;;;;;7.03;4.40;;;22.00;78.60;;;;;;5031902;28;20033;-89
2023/07/02 12:57:40;;;;;;;7.75;4.38;;;22.20;84.40;;;;;;5013313;28;20034;-88
2023/07/02 13:00:08;;;;;;;6.60;4.38;;;22.60;85.40;;;;;;5019735;28;20040;-89
2023/07/02 13:02:34;;;;;;;7.50;4.32;;;23.10;80.40;;;;;;5047924;28;20029;-88
2023/07/02 13:05:00;;;;;;;5.80;3.92;;;23.40;78.30;;;;;;5028339;28;20441;-88
2023/07/02 13:07:26;;;;;;;6.57;4.15;;;23.60;71.60;;;;;;5028693;28;20041;-88
2023/07/02 13:09:52;;;;;;;5.35;3.92;;;23.50;78.80;;;;;;5028632;28;20033;-89
2023/07/02 13:12:18;;;;;;;7.95;4.65;;;23.40;79.70;;;;;;5049539;28;20040;-87
2023/07/02 13:14:43;;;;;;;7.57;5.43;;;23.30;78.20;;;;;;5033651;28;20079;-89
2023/07/02 13:17:09;;;;;;;7.30;4.60;;;23.40;77.80;;;;;;5053214;28;20039;-88
2023/07/02 13:19:35;;;;;;;6.93;4.55;;;23.70;79.60;;;;;;5051716;28;20029;-88
2023/07/02 13:22:02;;;;;;;7.50;4.95;;;23.80;71.00;;;;;;5002680;28;20153;-88
2023/07/02 13:24:33;;;;;;;8.40;5.50;;;24.00;76.10;;;;;;5033874;28;20024;-88
2023/07/02 13:26:59;;;;;;;8.27;4.97;;;24.00;74.40;;;;;;5033297;28;20069;-89
2023/07/02 13:29:24;;;;;;;7.97;4.90;;;23.80;72.90;;;;;;5032996;28;20514;-87
2023/07/02 13:31:50;;;;;;;7.45;4.85;;;23.80;77.00;;;;;;5006642;28;20033;-89
2023/07/02 13:34:16;;;;;;;6.93;4.85;;;23.60;79.50;;;;;;5051660;28;20044;-90
2023/07/02 13:36:43;;;;;;;6.32;4.55;;;23.40;76.70;;;;;;5032790;28;20124;-88
2023/07/02 13:39:08;;;;;;;8.02;5.53;;;23.30;74.80;;;;;;5032787;28;20621;-89
2023/07/02 13:41:35;;;;;;;9.00;5.10;;;23.20;76.50;;;;;;5032865;28;20090;-89
2023/07/02 13:44:00;;;;;;;8.05;5.65;;;23.40;77.20;;;;;;4999464;28;20029;-88
2023/07/02 13:46:26;;;;;;;6.95;4.88;;;23.60;75.40;;;;;;5035136;28;20635;-87
2023/07/02 13:48:52;;;;;;;8.30;5.80;;;23.70;76.10;;;;;;5049031;28;20029;-87
2023/07/02 13:51:17;;;;;;;9.88;5.10;;;23.80;76.40;;;;;;5035876;28;20534;-88
2023/07/02 13:53:44;;;;;;;8.18;5.50;;;23.60;76.40;;;;;;5050054;28;20068;-87
2023/07/02 13:56:10;;;;;;;10.60;7.30;;;23.40;76.10;;;;;;5028660;28;20063;-88
2023/07/02 13:58:47;;;;;;;7.03;5.20;;;23.30;74.00;;;;;;5032240;28;20382;-88
2023/07/02 14:01:13;;;;;;;7.93;5.20;;;23.10;76.20;;;;;;5033751;28;20033;-88
2023/07/02 14:03:39;;;;;;;6.97;5.28;;;22.90;75.70;;;;;;5048648;28;20029;-86
2023/07/02 14:06:05;;;;;;;7.80;5.28;;;22.90;78.60;;;;;;4999886;28;20041;-86
2023/07/02 14:08:30;;;;;;;6.82;4.82;;;22.80;78.40;;;;;;5048609;28;20182;-87
2023/07/02 14:10:56;;;;;;;8.20;5.03;;;22.60;72.30;;;;;;5032473;28;20037;-89
2023/07/02 14:13:22;;;;;;;8.90;5.10;;;22.60;78.00;;;;;;5033160;28;20114;-85
2023/07/02 14:15:49;;;;;;;8.75;4.82;;;22.50;75.70;;;;;;5049023;28;20040;-86
2023/07/02 14:18:15;;;;;;;7.38;4.90;;;22.40;76.40;;;;;;5035501;28;20037;-86
2023/07/02 14:20:41;;;;;;;8.57;4.93;;;22.40;78.10;;;;;;5000574;28;20057;-86
2023/07/02 14:23:07;;;;;;;7.60;5.18;;;22.40;79.00;;;;;;5003596;28;20480;-87
2023/07/02 14:25:32;;;;;;;8.77;5.53;;;22.30;77.20;;;;;;5032349;28;20028;-87
2023/07/02 14:27:58;;;;;;;7.43;4.97;;;22.30;77.90;;;;;;5020899;28;20040;-87
2023/07/02 14:30:24;;;;;;;7.82;4.93;;;22.30;77.30;;;;;;5057015;28;20115;-86
2023/07/02 14:32:49;;;;;;;9.13;4.95;;;22.30;77.80;;;;;;5022326;28;20036;-86
2023/07/02 14:35:15;;;;;;;9.93;5.28;;;22.40;79.60;;;;;;5035972;28;20032;-88
2023/07/02 14:37:41;;;;;;;8.02;5.40;;;22.40;77.00;;;;;;5038973;28;20067;-87
2023/07/02 14:40:08;;;;;;;9.50;6.10;;;22.40;75.70;;;;;;5003514;28;20604;-88
2023/07/02 14:42:33;;;;;;;7.80;5.80;;;22.40;76.50;;;;;;5035961;28;20022;-88
2023/07/02 14:44:59;;;;;;;7.40;5.75;;;22.40;75.30;;;;;;5038354;28;20029;-86
2023/07/02 14:47:25;;;;;;;9.52;5.70;;;22.20;72.50;;;;;;5038397;28;20033;-88
2023/07/02 14:49:51;;;;;;;7.43;4.88;;;22.10;78.10;;;;;;5021813;28;20148;-89
2023/07/02 14:52:19;;;;;;;11.10;6.25;;;22.00;81.00;;;;;;5051248;28;20095;-89
2023/07/02 14:54:44;;;;;;;10.18;5.75;;;21.90;77.90;;;;;;5020401;28;20420;-88
2023/07/02 14:57:10;;;;;;;10.23;6.20;;;21.80;79.70;;;;;;5037037;28;20039;-87
2023/07/02 14:59:36;;;;;;;9.32;6.20;;;21.80;81.50;;;;;;5053560;28;20037;-86
2023/07/02 15:02:02;;;;;;;9.30;6.93;;;21.80;79.00;;;;;;5034123;28;20036;-88
2023/07/02 15:04:28;;;;;;;10.57;6.63;;;21.80;78.20;;;;;;5038355;28;20071;-88
2023/07/02 15:06:54;;;;;;;9.95;5.57;;;21.80;80.80;;;;;;5035171;28;20062;-87
2023/07/02 15:09:20;;;;;;;8.77;6.13;;;21.60;79.10;;;;;;5004858;28;20037;-88
2023/07/02 15:11:46;;;;;;;10.02;6.05;;;21.70;81.50;;;;;;5022087;28;20044;-89
2023/07/02 15:14:11;;;;;;;11.55;6.45;;;21.60;78.30;;;;;;5035639;28;20086;-86
2023/07/02 15:16:37;;;;;;;9.10;6.35;;;21.50;80.70;;;;;;5050241;28;20037;-87
2023/07/02 15:19:03;;;;;;;10.77;6.60;;;21.50;82.20;;;;;;5033449;28;20048;-86
2023/07/02 15:21:29;;;;;;;10.88;6.35;;;21.40;82.50;;;;;;5029024;28;20069;-87
2023/07/02 15:23:55;;;;;;;11.25;7.00;;;21.40;80.10;;;;;;5031240;28;20436;-85
2023/07/02 15:26:21;;;;;;;10.90;6.40;;;21.40;79.00;;;;;;5033497;28;20105;-86
2023/07/02 15:28:46;;;;;;;10.95;6.82;;;21.40;82.50;;;;;;5050843;28;20450;-87
2023/07/02 15:31:12;;;;;;;12.13;7.35;;;21.40;75.70;;;;;;5019647;28;20129;-86
2023/07/02 15:33:38;;;;;;;12.05;7.50;;;21.40;73.80;;;;;;5042702;28;20048;-86
2023/07/02 15:36:09;;;;;;;13.02;7.50;;;21.30;77.70;;;;;;5037474;28;20029;-85
2023/07/02 15:38:35;;;;;;;12.57;7.20;;;21.30;80.40;;;;;;5056322;28;20036;-85
2023/07/02 15:41:12;;;;;;;11.05;7.72;;;21.30;79.30;;;;;;5034619;28;20662;-86
2023/07/02 15:43:39;;;;;;;12.57;7.85;;;21.30;76.90;;;;;;5051133;28;20036;-85
2023/07/02 15:46:06;;;;;;;13.10;7.40;;;21.20;74.90;;;;;;5038140;28;20159;-86
2023/07/02 15:48:32;;;;;;;10.73;7.43;;;21.20;77.90;;;;;;5053325;28;20025;-86
2023/07/02 15:50:58;;;;;;;15.27;8.60;;;21.10;78.70;;;;;;5035253;28;20037;-86
2023/07/02 15:53:24;;;;;;;13.48;8.52;;;21.00;77.10;;;;;;5034541;28;20459;-86
2023/07/02 15:55:57;;;;;;;11.43;7.53;;;21.00;76.90;;;;;;5034072;28;20507;-86
2023/07/02 15:58:29;;;;;;;11.65;7.65;;;20.90;77.00;;;;;;5036092;28;20033;-86
2023/07/02 16:00:55;;;;;;;12.50;7.80;;;20.90;79.30;;;;;;5050999;28;20108;-87
2023/07/02 16:03:21;;;;;;;10.57;7.30;;;20.90;80.40;;;;;;5056436;28;20128;-85
2023/07/02 16:05:47;;;;;;;14.25;8.07;;;20.80;81.10;;;;;;5048598;28;20525;-87
2023/07/02 16:08:14;;;;;;;10.15;7.05;;;20.70;81.40;;;;;;5030767;28;20041;-87
2023/07/02 16:10:44;;;;;;;11.27;7.43;;;20.70;82.50;;;;;;5035816;28;20021;-87
2023/07/02 16:13:13;;;;;;;13.35;8.02;;;20.70;79.70;;;;;;5050161;28;20032;-87
2023/07/02 16:15:40;;;;;;;13.88;7.65;;;20.80;78.30;;;;;;5050600;28;20047;-87
2023/07/02 16:18:09;;;;;;;14.60;7.97;;;20.80;77.50;;;;;;5019072;28;20029;-88
2023/07/02 16:20:36;;;;;;;14.52;8.30;;;20.90;81.40;;;;;;5032012;28;20025;-88
2023/07/02 16:23:03;;;;;;;14.45;7.68;;;20.90;85.30;;;;;;5041381;28;20040;-90
2023/07/02 16:25:29;;;;;;;13.63;8.57;;;20.80;81.40;;;;;;5033201;28;20065;-87
2023/07/02 16:27:55;;;;;;;15.93;7.97;;;20.70;79.70;;;;;;5034373;28;20032;-88
2023/07/02 16:30:21;;;;;;;12.13;7.95;;;20.70;81.70;;;;;;5034899;28;20041;-86
2023/07/02 16:32:48;;;;;;;13.65;8.73;;;20.60;81.50;;;;;;5051521;28;21056;-89
2023/07/02 16:35:14;;;;;;;14.50;7.95;;;20.40;81.90;;;;;;5051634;28;20082;-89
2023/07/02 16:37:40;;;;;;;11.45;7.70;;;20.40;82.70;;;;;;5038279;28;20128;-87
2023/07/02 16:40:07;;;;;;;12.20;8.30;;;20.30;81.30;;;;;;5051749;28;20110;-87
2023/07/02 16:42:32;;;;;;;14.25;8.52;;;20.20;82.80;;;;;;5050384;28;20033;-88
2023/07/02 16:45:05;;;;;;;15.45;9.18;;;20.20;81.30;;;;;;4999776;28;20100;-87
2023/07/02 16:47:32;;;;;;;12.02;8.02;;;20.10;80.60;;;;;;5020643;28;20025;-87
2023/07/02 16:50:03;;;;;;;14.73;8.50;;;20.10;82.50;;;;;;5048728;28;20131;-87
2023/07/02 16:52:28;;;;;;;20.30;12.23;;;20.10;83.80;;;;;;5046237;28;20032;-87
2023/07/02 16:54:54;;;;;;;18.75;11.65;;;20.10;83.60;;;;;;5015588;28;20033;-88
2023/07/02 16:57:20;;;;;;;14.80;8.98;;;20.10;79.90;;;;;;5033308;28;20371;-87
2023/07/02 16:59:46;;;;;;;13.10;8.55;;;20.10;80.40;;;;;;5006755;28;20093;-87
2023/07/02 17:02:12;;;;;;;12.85;8.93;;;20.00;83.30;;;;;;5035500;28;20593;-88
2023/07/02 17:04:38;;;;;;;13.50;9.00;;;19.90;78.90;;;;;;5036420;28;20403;-87
2023/07/02 17:07:04;;;;;;;13.65;9.18;;;19.90;81.40;;;;;;5031170;28;20040;-86
2023/07/02 17:09:33;;;;;;;16.05;9.45;;;19.80;81.90;;;;;;5049064;28;20556;-86
2023/07/02 17:12:19;;;;;;;18.52;10.23;;;19.80;81.90;;;;;;5052836;28;20052;-87
2023/07/02 17:14:50;;;;;;;14.60;8.82;;;19.80;83.10;;;;;;5049656;28;20025;-85
2023/07/02 17:17:19;;;;;;;16.65;9.45;;;19.70;82.70;;;;;;5030277;28;20037;-86
2023/07/02 17:19:51;;;;;;;19.23;9.80;;;19.60;83.50;;;;;;5046504;28;20558;-87
2023/07/02 17:22:25;;;;;;;14.52;8.65;;;19.60;83.00;;;;;;5050134;28;20490;-87
2023/07/02 17:24:53;;;;;;;16.67;9.00;;;19.60;83.50;;;;;;5029845;28;20044;-89
2023/07/02 17:27:22;;;;;;;15.93;9.23;;;19.60;84.40;;;;;;5012901;28;20487;-87
2023/07/02 17:29:52;;;;;;;14.73;9.32;;;19.60;85.50;;;;;;5022798;28;20030;-89
2023/07/02 17:32:18;;;;;;;17.10;9.20;;;19.60;84.50;;;;;;5026927;28;20021;-88
2023/07/02 17:34:44;;;;;;;15.55;10.27;;;19.60;86.50;;;;;;5046325;28;20088;-89
2023/07/02 17:37:12;;;;;;;17.98;9.93;;;19.50;87.50;;;;;;5033830;28;20703;-87
2023/07/02 17:39:40;;;;;;;15.32;9.95;;;19.50;86.70;;;;;;5046865;28;20036;-89
2023/07/02 17:42:07;;;;;;;14.23;9.55;;;19.40;83.70;;;;;;5044066;28;20028;-88
2023/07/02 17:44:36;;;;;;;16.60;10.25;;;19.40;85.60;;;;;;5032510;28;20029;-86
2023/07/02 17:47:08;;;;;;;15.68;9.63;;;19.30;85.70;;;;;;5028051;28;20060;-89
2023/07/02 17:49:36;;;;;;;14.75;10.25;;;19.20;87.80;;;;;;5049239;28;20049;-87
2023/07/02 17:52:02;;;;;;;17.15;9.95;;;19.20;86.70;;;;;;5045193;28;20092;-88
2023/07/02 17:54:34;;;;;;;18.15;10.60;;;19.10;85.30;;;;;;5031321;28;20041;-87
2023/07/02 17:57:00;;;;;;;16.02;10.00;;;19.00;87.80;;;;;;5046149;28;20035;-85
2023/07/02 17:59:30;;;;;;;16.88;9.85;;;19.00;87.80;;;;;;5030684;28;20030;-88
2023/07/02 18:01:56;;;;;;;16.38;10.13;;;19.00;88.00;;;;;;5048339;28;20029;-88
2023/07/02 18:04:26;;;;;;;16.65;9.85;;;18.90;89.80;;;;;;5045344;28;20112;-88
2023/07/02 18:06:58;;;;;;;19.80;10.65;;;18.90;90.10;;;;;;5048193;28;20034;-87
2023/07/02 18:09:25;;;;;;;15.40;10.27;;;18.90;90.00;;;;;;5055623;28;20024;-87
2023/07/02 18:11:51;;;;;;;17.88;11.23;;;18.90;88.30;;;;;;5052569;28;20025;-86
2023/07/02 18:14:18;;;;;;;17.48;10.07;;;18.90;90.10;;;;;;5064503;28;20062;-88
2023/07/02 18:16:44;;;;;;;15.60;10.68;;;18.80;89.80;;;;;;5041101;28;20055;-89
2023/07/02 18:19:10;;;;;;;15.35;10.57;;;18.80;88.20;;;;;;5066910;28;20036;-88
2023/07/02 18:21:36;;;;;;;19.55;10.68;;;18.90;88.70;;;;;;5034939;28;20105;-88
2023/07/02 18:24:03;;;;;;;17.45;10.77;;;18.80;90.10;;;;;;5038937;28;20115;-88
2023/07/02 18:26:29;;;;;;;17.45;9.85;;;18.80;88.30;;;;;;5037873;28;20100;-88
2023/07/02 18:28:55;;;;;;;18.38;10.00;;;18.80;88.70;;;;;;5042004;28;20049;-87
2023/07/02 18:31:21;;;;;;;15.82;10.15;;;18.70;89.90;;;;;;5039208;28;20041;-86
2023/07/02 18:33:46;;;;;;;19.67;10.65;;;18.60;90.40;;;;;;5036168;28;20035;-87
2023/07/02 18:38:54;;;;;;;18.38;10.63;;;18.50;91.20;;;;;;4991798;23;21257;-80
2023/07/02 18:41:19;;;;;;;16.95;9.65;;;18.50;91.50;;;;;;4994069;28;20058;-80
2023/07/02 18:43:45;;;;;;;18.52;11.50;;;18.40;91.30;;;;;;4985648;28;20035;-80
2023/07/02 18:46:11;;;;;;;16.33;11.02;;;18.30;90.90;;;;;;4971331;28;20094;-79
2023/07/02 18:48:37;;;;;;;20.00;10.55;;;18.30;91.20;;;;;;4975435;28;20097;-81
2023/07/02 18:51:04;;;;;;;19.17;11.23;;;18.20;91.10;;;;;;4968700;28;20056;-79
2023/07/02 18:53:32;;;;;;;17.17;10.05;;;18.10;90.40;;;;;;4970368;28;20415;-82
2023/07/02 18:56:06;;;;;;;18.38;9.98;;;18.10;91.30;;;;;;4974531;28;20038;-79
2023/07/02 18:58:33;;;;;;;20.70;11.52;;;18.10;91.80;;;;;;4969530;28;20069;-80
2023/07/02 19:01:11;;;;;;;14.77;10.25;;;18.00;92.10;;;;;;4972447;28;20037;-79
2023/07/02 19:03:37;;;;;;;14.80;10.20;;;18.00;92.20;;;;;;4967543;28;20047;-78
2023/07/02 19:06:08;;;;;;;16.08;10.63;;;17.90;92.30;;;;;;4969370;28;20027;-77
2023/07/02 19:08:34;;;;;;;17.40;10.15;;;17.80;92.40;;;;;;4967445;28;20034;-80
2023/07/02 19:11:02;;;;;;;16.38;10.63;;;17.80;92.40;;;;;;4969011;28;20177;-78
2023/07/02 19:13:28;;;;;;;15.88;10.18;;;17.70;92.20;;;;;;4968492;28;20176;-79
2023/07/02 19:15:54;;;;;;;14.55;10.23;;;17.70;92.50;;;;;;4967949;28;20110;-79
2023/07/02 19:18:21;;;;;;;17.98;10.68;;;17.60;92.50;;;;;;4970147;28;20035;-78
2023/07/02 19:20:47;;;;;;;17.05;11.15;;;17.60;92.10;;;;;;4968911;28;20038;-80
2023/07/02 19:23:12;;;;;;;17.05;10.95;;;17.50;91.70;;;;;;4966700;28;20031;-80
2023/07/02 19:25:38;;;;;;;16.50;9.82;;;17.40;90.90;;;;;;4951811;28;20114;-81
2023/07/02 19:28:04;;;;;;;18.63;11.48;;;17.40;91.70;;;;;;4968110;28;20027;-78
2023/07/02 19:30:30;;;;;;;20.38;12.38;;;17.40;91.40;;;;;;4968616;28;20043;-80
2023/07/02 19:32:55;;;;;;;21.17;11.75;;;17.30;91.20;;;;;;4971257;28;20026;-82
2023/07/02 19:35:22;;;;;;;16.67;11.07;;;17.20;91.40;;;;;;4971154;28;20573;-77
2023/07/02 19:37:48;;;;;;;18.75;11.13;;;17.20;91.70;;;;;;4972613;28;20046;-78
2023/07/02 19:40:14;;;;;;;21.77;11.27;;;17.10;91.90;;;;;;4968264;28;20038;-77
2023/07/02 19:42:39;;;;;;;20.88;10.88;;;17.00;92.30;;;;;;4968815;28;21073;-77
2023/07/02 19:45:06;;;;;;;19.08;10.98;;;17.00;92.20;;;;;;4970410;28;20601;-79
2023/07/02 19:47:31;;;;;;;17.83;10.30;;;16.90;92.30;;;;;;4964327;28;20058;-80
2023/07/02 19:49:59;;;;;;;18.30;10.60;;;16.90;92.00;;;;;;4971458;28;20027;-77
2023/07/02 19:52:26;;;;;;;17.08;11.02;;;16.80;92.40;;;;;;4972067;28;20684;-78
2023/07/02 19:54:58;;;;;;;18.58;10.40;;;16.80;92.10;;;;;;4969869;28;20089;-80
2023/07/02 19:57:23;;;;;;;17.77;10.15;;;16.70;92.70;;;;;;4998972;28;20031;-81
2023/07/02 19:59:50;;;;;;;19.02;10.32;;;16.60;92.80;;;;;;4953169;28;20015;-79
2023/07/02 20:02:17;;;;;;;18.85;11.35;;;16.60;92.50;;;;;;4967400;28;20057;-78
2023/07/02 20:04:45;;;;;;;16.38;11.00;;;16.50;92.30;;;;;;4965945;28;20585;-78
2023/07/02 20:07:18;;;;;;;20.92;11.75;;;16.50;93.00;;;;;;4971854;28;20027;-79
2023/07/02 20:09:44;;;;;;;20.75;11.30;;;16.50;92.60;;;;;;4972426;28;20058;-79
2023/07/02 20:12:12;;;;;;;18.98;11.35;;;16.50;92.80;;;;;;4971415;28;20055;-78
2023/07/02 20:14:39;;;;;;;17.90;10.68;;;16.50;93.00;;;;;;4971519;28;20499;-79
2023/07/02 20:17:08;;;;;;;18.67;11.05;;;16.40;93.10;;;;;;4973012;28;20038;-79
2023/07/02 20:19:37;;;;;;;18.58;10.20;;;16.40;93.20;;;;;;4968788;28;20558;-80
2023/07/02 20:22:03;;;;;;;18.27;11.32;;;16.40;93.20;;;;;;4958790;28;20583;-78
2023/07/02 20:24:29;;;;;;;17.88;11.25;;;16.30;92.90;;;;;;4965294;28;20489;-79
2023/07/02 20:26:57;;;;;;;18.85;11.57;;;16.30;92.80;;;;;;4959991;28;20027;-80
2023/07/02 20:29:23;;;;;;;17.33;11.27;;;16.20;93.00;;;;;;4969208;28;20027;-80
2023/07/02 20:31:50;;;;;;;19.48;10.75;;;16.20;93.40;;;;;;4970964;28;20027;-79
2023/07/02 20:34:17;;;;;;;20.88;12.10;;;16.10;93.20;;;;;;4971069;28;20124;-81
2023/07/02 20:36:44;;;;;;;20.23;11.13;;;16.10;93.40;;;;;;4975022;28;20042;-80
2023/07/02 20:39:14;;;;;;;21.05;11.27;;;16.00;93.10;;;;;;4976266;28;20031;-79
2023/07/02 20:41:45;;;;;;;22.55;12.27;;;16.00;93.20;;;;;;4972734;28;20042;-78
2023/07/02 20:44:18;;;;;;;21.33;11.52;;;16.00;93.30;;;;;;4964640;28;20033;-78
2023/07/02 20:46:47;;;;;;;19.35;10.95;;;15.90;93.30;;;;;;4973374;28;20563;-80
2023/07/02 20:49:15;;;;;;;19.23;11.80;;;15.90;93.30;;;;;;4971758;28;20027;-81
2023/07/02 20:51:42;;;;;;;20.63;10.60;;;15.90;93.60;;;;;;4970927;28;20026;-80
2023/07/02 20:54:12;;;;;;;18.88;10.77;;;15.80;93.60;;;;;;4960289;28;20484;-81
2023/07/02 20:56:41;;;;;;;18.77;11.35;;;15.80;93.60;;;;;;4971448;28;20049;-79
2023/07/02 20:59:08;;;;;;;18.35;10.43;;;15.70;93.80;;;;;;4969152;28;20045;-80
2023/07/02 21:01:35;;;;;;;18.70;10.80;;;15.70;94.20;;;;;;4973485;28;20031;-79
2023/07/02 21:04:06;;;;;;;19.90;11.25;;;15.60;94.30;;;;;;4969848;28;20229;-79
2023/07/02 21:06:34;;;;;;;18.92;10.90;;;15.60;94.30;;;;;;4953749;28;20067;-78
2023/07/02 21:09:04;;;;;;;21.45;10.98;;;15.60;94.40;;;;;;4962283;28;20031;-78
2023/07/02 21:11:31;;;;;;;24.20;12.00;;;15.60;94.60;;;;;;4967709;28;20699;-80
2023/07/02 21:13:56;;;;;;;17.75;10.88;;;15.50;95.00;;;;;;4963801;28;20388;-80
2023/07/02 21:16:22;;;;;;;21.30;11.80;;;15.50;95.20;;;;;;4970044;28;20208;-80
2023/07/02 21:18:48;;;;;;;23.33;12.48;;;15.40;95.10;;;;;;4970820;28;20114;-79
2023/07/02 21:21:14;;;;;;;19.85;11.30;;;15.30;95.50;;;;;;4965377;28;20543;-79
2023/07/02 21:23:40;;;;;;;21.05;12.27;;;15.30;95.50;;;;;;4965939;28;20030;-79
2023/07/02 21:26:06;;;;;;;19.42;12.05;;;15.20;95.80;;;;;;4970384;28;20078;-78
2023/07/02 21:28:33;;;;;;;19.42;11.13;;;15.20;96.20;;;;;;4965669;28;20127;-80
2023/07/02 21:30:59;;;;;;;22.25;12.48;;;15.10;96.70;;;;;;4974105;28;20110;-78
2023/07/02 21:33:26;;;;;;;24.38;12.93;;;15.10;96.80;;;;;;4968338;28;20062;-80
2023/07/02 21:35:52;;;;;;;19.50;12.02;;;15.00;97.10;;;;;;4981237;28;20088;-80
2023/07/02 21:38:17;;;;;;;17.50;11.15;;;15.00;97.40;;;;;;4978319;28;20046;-79
2023/07/02 21:40:43;;;;;;;20.35;12.15;;;15.00;97.60;;;;;;4987591;28;20034;-79
2023/07/02 21:43:10;;;;;;;20.35;11.35;;;14.90;97.80;;;;;;4990647;23;20101;-77
2023/07/02 21:45:35;;;;;;;24.13;12.10;;;14.90;97.90;;;;;;4976392;28;20027;-78
2023/07/02 21:48:01;;;;;;;22.95;12.50;;;14.80;98.00;;;;;;4992528;28;20043;-78
2023/07/02 21:50:27;;;;;;;22.08;12.07;;;14.80;97.80;;;;;;4977044;28;20069;-78
2023/07/02 21:52:53;;;;;;;21.33;12.38;;;14.80;97.70;;;;;;4986615;28;20556;-77
2023/07/02 21:55:19;;;;;;;19.98;11.52;;;14.70;97.80;;;;;;4996057;28;20030;-78
2023/07/02 21:57:44;;;;;;;22.42;12.40;;;14.70;98.00;;;;;;4996688;28;20038;-78
2023/07/02 22:00:12;;;;;;;21.65;11.85;;;14.60;98.30;;;;;;4996154;28;20041;-77
2023/07/02 22:02:43;;;;;;;20.35;11.82;;;14.60;98.20;;;;;;4994745;28;20136;-78
2023/07/02 22:05:09;;;;;;;18.20;12.13;;;14.60;98.30;;;;;;4995599;28;20672;-78
2023/07/02 22:07:35;;;;;;;22.17;12.30;;;14.60;98.70;;;;;;4996011;28;20034;-78
2023/07/02 22:10:00;;;;;;;22.02;11.70;;;14.60;98.80;;;;;;4995784;28;20034;-78
2023/07/02 22:12:26;;;;;;;20.55;11.35;;;14.60;99.10;;;;;;4995399;28;20061;-78
2023/07/02 22:14:52;;;;;;;18.90;11.40;;;14.60;99.00;;;;;;4997589;28;20030;-78
2023/07/02 22:17:19;;;;;;;19.27;11.68;;;14.60;99.30;;;;;;4998682;28;20512;-78
2023/07/02 22:19:46;;;;;;;18.98;11.48;;;14.60;99.40;;;;;;4999019;28;20473;-79
2023/07/02 22:22:12;;;;;;;19.05;12.00;;;14.60;99.70;;;;;;4997942;28;20052;-80
2023/07/02 22:24:38;;;;;;;20.30;11.95;;;14.60;99.90;;;;;;5028985;28;20129;-79
2023/07/02 22:27:04;;;;;;;20.23;11.93;;;14.70;99.90;;;;;;4998326;28;20041;-79
2023/07/02 22:29:30;;;;;;;21.00;11.10;;;14.70;99.80;;;;;;5029506;28;20065;-80
2023/07/02 22:31:55;;;;;;;22.73;11.80;;;14.70;99.90;;;;;;4997971;28;20327;-79
2023/07/02 22:34:22;;;;;;;21.25;11.75;;;14.70;99.90;;;;;;4996842;28;20022;-79
2023/07/02 22:36:48;;;;;;;18.75;11.82;;;14.70;99.90;;;;;;4997784;28;20034;-78
2023/07/02 22:39:14;;;;;;;21.20;11.57;;;14.70;99.90;;;;;;4998848;28;20038;-79
2023/07/02 22:41:40;;;;;;;21.83;12.35;;;14.70;99.90;;;;;;4997701;28;20034;-79
2023/07/02 22:44:06;;;;;;;19.60;11.18;;;14.70;99.90;;;;;;4995863;28;20045;-79
2023/07/02 22:46:31;;;;;;;17.63;11.73;;;14.60;99.90;;;;;;4997719;28;20026;-79
2023/07/02 22:48:57;;;;;;;21.02;11.60;;;14.60;99.90;;;;;;4997569;28;20042;-79
2023/07/02 22:51:22;;;;;;;21.52;12.30;;;14.60;99.90;;;;;;4996096;28;20875;-79
2023/07/02 22:53:48;;;;;;;19.45;11.15;;;14.50;99.90;;;;;;4996976;28;20057;-79
2023/07/02 22:56:16;;;;;;;19.83;11.45;;;14.50;99.90;;;;;;4997714;28;20026;-80
2023/07/02 22:58:43;;;;;;;22.65;12.30;;;14.50;99.90;;;;;;5029359;28;20038;-79
2023/07/02 23:01:27;;;;;;;20.20;11.63;;;14.40;99.90;;;;;;4996369;28;20068;-79
2023/07/02 23:03:53;;;;;;;18.63;11.50;;;14.40;99.90;;;;;;4997390;28;20069;-79
2023/07/02 23:06:21;;;;;;;20.10;11.38;;;14.40;99.90;;;;;;4996642;28;20026;-79
2023/07/02 23:08:47;;;;;;;21.35;11.70;;;14.30;99.90;;;;;;4995126;28;20408;-79
2023/07/02 23:11:13;;;;;;;19.75;11.48;;;14.30;99.90;;;;;;4997354;28;20049;-78
2023/07/02 23:13:38;;;;;;;20.63;12.48;;;14.30;99.90;;;;;;4997042;28;20037;-79
2023/07/02 23:16:04;;;;;;;21.33;12.90;;;14.30;99.90;;;;;;5028721;28;20073;-79
2023/07/02 23:18:34;;;;;;;21.17;12.27;;;14.20;99.90;;;;;;4996043;28;20620;-79
2023/07/02 23:21:02;;;;;;;21.35;11.70;;;14.20;99.90;;;;;;4996166;28;20042;-80
2023/07/02 23:23:29;;;;;;;20.92;11.02;;;14.20;99.90;;;;;;4994822;28;20045;-79
2023/07/02 23:25:58;;;;;;;19.85;12.02;;;14.20;99.90;;;;;;4997176;28;20124;-79
2023/07/02 23:28:25;;;;;;;24.30;12.15;;;14.20;99.90;;;;;;4997267;28;20404;-79
2023/07/02 23:30:51;;;;;;;22.00;12.70;;;14.10;99.90;;;;;;4996493;28;20086;-79
2023/07/02 23:33:18;;;;;;;25.17;13.57;;;14.10;99.90;;;;;;4996540;28;20035;-79
2023/07/02 23:35:44;;;;;;;22.17;12.07;;;14.10;99.90;;;;;;4995787;28;20060;-79
2023/07/02 23:38:10;;;;;;;19.63;11.77;;;14.10;99.90;;;;;;4997149;28;20037;-79
2023/07/02 23:40:36;;;;;;;23.67;12.32;;;14.00;99.90;;;;;;4997245;28;20680;-80
2023/07/02 23:43:03;;;;;;;23.23;12.80;;;14.00;99.90;;;;;;5007225;28;20030;-79
2023/07/02 23:45:29;;;;;;;21.73;12.25;;;14.00;99.90;;;;;;5015951;28;20069;-80
2023/07/02 23:47:54;;;;;;;22.60;11.63;;;14.00;99.90;;;;;;5015701;28;20026;-80
2023/07/02 23:50:21;;;;;;;21.00;11.75;;;13.90;99.90;;;;;;4997383;28;20038;-80